首页
METAR-TAF:

METAR-TAF

机场 :

富國國際機場

富國島, 越南

纬度: 10-10-18N, 经度: 103-59-28E, 海拔: 11米

当前天气观测

该预报发布于26分钟前的22:30 UTC
风速1节,风向多变
温度 27°C
湿度 79%
气压 1007 hPa
能见度10公里或以上
少量云层高于1500英尺

METAR: VVPQ 182230Z VRB01KT 9999 FEW015 27/23 Q1007 NOSIG

时间: 05:56 (22:56 UTC)

预报

该预报发布于5小时和56分钟前的17:00 UTC
预报有效从18日的 18点(UTC)到 19日的 18点(UTC)
风速3节,风向多变
能见度10公里或以上
散云层高于1700英尺
散云层高于4000英尺
成为
从 19日的 01点(UTC)到 19日的 02点(UTC)
风速10节,风向西南

TAF: VVPQ 181700Z 1818/1918 VRB03KT 9999 SCT017 SCT040 BECMG 1901/1902 22010KT

超过4000个机场的气象观测和天气预报(METAR&TAF报告)。

可查询的气象台以黄色和红色小点在地图上表示。

将鼠标移到小点上方,可查看气象台名称。

然后点击查看天气观测和预报。

如需切换地图:点击带黑十字的绿色按钮放大地图;点击带横线的绿色按钮缩小地图;或者点击绿色箭头查看邻近地区的地图。


METAR-TAF: